Time;durP1;ratioP1;P1;durP2;ratioP2;P2;SDS_P1;SDS_P2;PMS_P1;PMS_P2;Temp;Humidity;BMP_temperature;BMP_pressure;BME280_temperature;BME280_humidity;BME280_pressure;Samples;Min_cycle;Max_cycle;Signal;HPM_P1;HPM_P2
2023/04/01 00:02:30;;;;;;;0.68;0.20;;;;;;;12.71;89.49;98448.63;8322959;28;20042;-53
2023/04/01 00:06:30;;;;;;;2.35;0.45;;;;;;;12.68;89.99;98454.47;8323369;28;20121;-54
2023/04/01 00:10:31;;;;;;;1.45;0.38;;;;;;;12.70;89.44;98448.81;8325224;28;20041;-54
2023/04/01 00:14:31;;;;;;;6.28;0.30;;;;;;;12.66;90.42;98453.00;8329850;28;20083;-54
2023/04/01 00:18:32;;;;;;;0.85;0.22;;;;;;;12.62;91.43;98457.13;8327899;28;20087;-56
2023/04/01 00:22:33;;;;;;;1.30;0.30;;;;;;;12.57;91.36;98454.22;8347023;28;20061;-53
2023/04/01 00:26:34;;;;;;;1.48;0.40;;;;;;;12.52;91.82;98443.13;8362616;28;20568;-53
2023/04/01 00:30:36;;;;;;;3.42;0.30;;;;;;;12.53;91.49;98436.69;8361829;28;20462;-52
2023/04/01 00:34:37;;;;;;;1.13;0.30;;;;;;;12.53;91.26;98432.09;8362098;28;20047;-52
2023/04/01 00:38:38;;;;;;;1.23;0.45;;;;;;;12.55;90.99;98434.59;8337690;28;20044;-53
2023/04/01 00:42:39;;;;;;;0.65;0.30;;;;;;;12.64;89.89;98442.34;8329478;28;20065;-59
2023/04/01 00:46:39;;;;;;;1.77;0.45;;;;;;;12.67;89.64;98441.09;8328977;28;20048;-59
2023/04/01 00:50:44;;;;;;;2.10;0.40;;;;;;;12.68;89.67;98446.31;8330375;28;20159;-59
2023/04/01 00:54:49;;;;;;;2.05;0.35;;;;;;;12.66;89.43;98442.97;8343376;28;20088;-59
2023/04/01 00:58:54;;;;;;;1.55;0.30;;;;;;;12.70;89.26;98443.41;8333489;28;20582;-59
2023/04/01 01:02:55;;;;;;;0.80;0.20;;;;;;;12.74;88.81;98442.78;8327198;28;20447;-59
2023/04/01 01:07:20;;;;;;;1.52;0.30;;;;;;;12.73;89.14;98432.16;8328055;28;20123;-59
2023/04/01 01:11:30;;;;;;;2.72;0.20;;;;;;;12.73;88.88;98433.00;8326530;28;20034;-60
2023/04/01 01:15:41;;;;;;;1.67;0.20;;;;;;;12.72;89.34;98444.06;8324122;28;20500;-60
2023/04/01 01:20:11;;;;;;;0.93;0.20;;;;;;;12.67;89.72;98435.69;8325532;28;20075;-60
2023/04/01 01:24:26;;;;;;;0.35;0.25;;;;;;;12.61;91.32;98436.50;8389362;28;20036;-60
2023/04/01 01:29:02;;;;;;;2.08;0.30;;;;;;;12.54;92.65;98435.66;8360708;28;20128;-60
2023/04/01 01:33:18;;;;;;;1.10;0.20;;;;;;;12.44;93.13;98422.47;8360454;28;20039;-60
2023/04/01 01:37:22;;;;;;;0.60;0.20;;;;;;;12.40;92.88;98431.22;8345046;28;20044;-54
2023/04/01 01:41:26;;;;;;;0.50;0.10;;;;;;;12.33;93.52;98424.94;8327497;28;20064;-54
2023/04/01 01:45:28;;;;;;;;;;;;;;;12.35;92.84;98423.69;8327278;28;20158;-54
2023/04/01 01:49:32;;;;;;;1.13;0.20;;;;;;;12.32;93.64;98431.41;8327485;28;19939;-53
2023/04/01 01:53:33;;;;;;;0.63;0.20;;;;;;;12.33;93.35;98427.66;8344071;28;20048;-54
2023/04/01 01:57:37;;;;;;;0.63;0.20;;;;;;;12.29;93.26;98426.41;8327174;28;20060;-54
2023/04/01 02:01:46;;;;;;;0.20;0.20;;;;;;;12.26;94.17;98424.09;8326558;28;20034;-54
2023/04/01 02:05:52;;;;;;;1.10;0.10;;;;;;;12.20;94.90;98414.88;8326342;28;20040;-55
2023/04/01 02:09:53;;;;;;;0.50;0.20;;;;;;;12.17;94.30;98419.88;8326443;28;20069;-54
2023/04/01 02:14:07;;;;;;;0.25;0.20;;;;;;;12.08;96.06;98410.25;8326452;28;20037;-54
2023/04/01 02:18:08;;;;;;;1.48;0.30;;;;;;;12.04;95.87;98409.00;8326285;28;20064;-54
2023/04/01 02:22:13;;;;;;;1.17;0.30;;;;;;;11.99;97.59;98416.88;8338869;28;20115;-54
2023/04/01 02:26:15;;;;;;;0.63;0.10;;;;;;;11.87;97.57;98409.31;8358987;28;20075;-54
2023/04/01 02:30:17;;;;;;;0.52;0.20;;;;;;;11.96;97.75;98414.56;8358460;28;20061;-54
2023/04/01 02:34:19;;;;;;;1.80;0.32;;;;;;;11.95;97.24;98407.50;8357183;28;20479;-56
2023/04/01 02:38:20;;;;;;;0.95;0.25;;;;;;;11.99;95.41;98411.47;8336444;28;20041;-54
2023/04/01 02:42:21;;;;;;;1.27;0.20;;;;;;;12.01;94.63;98410.22;8324809;28;20042;-55
2023/04/01 02:46:21;;;;;;;0.85;0.30;;;;;;;12.07;92.98;98408.59;8325200;28;20503;-54
2023/04/01 02:50:22;;;;;;;0.40;0.10;;;;;;;12.09;93.45;98411.91;8325190;28;20466;-54
2023/04/01 02:54:22;;;;;;;1.77;0.30;;;;;;;12.11;93.16;98421.53;8333134;28;20030;-59
2023/04/01 02:58:23;;;;;;;0.10;0.10;;;;;;;12.13;93.07;98415.91;8322613;28;20124;-60
2023/04/01 03:02:23;;;;;;;0.75;0.10;;;;;;;12.14;92.98;98426.53;8324838;28;20091;-59
2023/04/01 03:06:24;;;;;;;0.10;0.10;;;;;;;12.14;93.49;98418.38;8323941;28;20060;-59
2023/04/01 03:10:24;;;;;;;1.38;0.40;;;;;;;12.15;93.54;98427.38;8323412;28;20033;-59
2023/04/01 03:14:25;;;;;;;0.65;0.20;;;;;;;12.14;93.92;98426.53;8323786;28;20033;-59
2023/04/01 03:18:26;;;;;;;0.30;0.10;;;;;;;12.11;94.74;98432.38;8324508;28;20044;-59
2023/04/01 03:22:27;;;;;;;0.28;0.10;;;;;;;12.07;95.33;98441.91;8372547;28;20095;-59
2023/04/01 03:26:27;;;;;;;0.65;0.10;;;;;;;12.02;96.14;98430.88;8356514;28;20071;-54
2023/04/01 03:30:30;;;;;;;0.43;0.10;;;;;;;12.06;95.54;98428.56;8348828;28;20439;-54
2023/04/01 03:34:31;;;;;;;0.82;0.10;;;;;;;12.11;95.01;98423.41;8356370;28;20037;-54
2023/04/01 03:38:33;;;;;;;0.20;0.15;;;;;;;12.17;94.10;98430.72;8333062;28;20300;-54
2023/04/01 03:42:34;;;;;;;0.52;0.17;;;;;;;12.20;93.81;98435.72;8324315;28;20034;-54
2023/04/01 03:46:35;;;;;;;1.38;0.10;;;;;;;12.20;93.79;98435.72;8322987;28;20439;-54
2023/04/01 03:50:35;;;;;;;0.10;0.10;;;;;;;12.10;94.54;98429.84;8325551;28;20065;-54
2023/04/01 03:54:36;;;;;;;1.42;0.13;;;;;;;12.13;95.32;98441.09;8339228;28;20037;-54
2023/04/01 03:58:38;;;;;;;0.52;0.15;;;;;;;12.13;94.89;98437.59;8323959;28;20056;-54
2023/04/01 04:02:41;;;;;;;1.15;0.15;;;;;;;12.07;95.52;98446.50;8323776;28;20037;-54
2023/04/01 04:06:47;;;;;;;0.68;0.13;;;;;;;12.06;96.40;98444.81;8322504;28;20064;-55
2023/04/01 04:10:55;;;;;;;0.88;0.20;;;;;;;12.05;95.82;98437.75;8322948;28;20045;-54
2023/04/01 04:14:56;;;;;;;0.20;0.10;;;;;;;12.02;96.49;98443.56;8339679;28;20047;-54
2023/04/01 04:18:57;;;;;;;0.40;0.10;;;;;;;11.99;97.41;98454.78;8329275;28;20051;-54
2023/04/01 04:22:57;;;;;;;0.32;0.10;;;;;;;11.90;99.37;98456.81;8344669;28;20041;-54
2023/04/01 04:26:58;;;;;;;0.52;0.20;;;;;;;11.78;100.00;98455.72;8387348;28;20487;-54
2023/04/01 04:30:59;;;;;;;0.17;0.10;;;;;;;11.76;100.00;98465.88;8356288;28;20526;-54
2023/04/01 04:35:02;;;;;;;0.20;0.20;;;;;;;11.73;100.00;98461.72;8355356;28;20041;-54
2023/04/01 04:39:03;;;;;;;0.05;0.05;;;;;;;11.74;100.00;98463.38;8344165;28;20033;-54
2023/04/01 04:43:06;;;;;;;0.32;0.10;;;;;;;11.74;100.00;98457.13;8322564;28;20049;-55
2023/04/01 04:47:06;;;;;;;0.40;0.30;;;;;;;11.75;100.00;98459.63;8322312;28;20045;-55
2023/04/01 04:51:07;;;;;;;0.65;0.20;;;;;;;11.78;100.00;98478.19;8328588;28;20102;-54
2023/04/01 04:55:08;;;;;;;0.95;0.20;;;;;;;11.76;100.00;98477.56;8334957;28;20051;-54
2023/04/01 04:59:08;;;;;;;0.82;0.10;;;;;;;11.75;100.00;98478.56;8328801;28;20057;-55
2023/04/01 05:03:17;;;;;;;0.20;0.20;;;;;;;11.73;100.00;98487.94;8327991;28;20385;-53
2023/04/01 05:07:17;;;;;;;1.98;0.30;;;;;;;11.62;100.00;98478.50;8327773;28;20088;-54
2023/04/01 05:11:20;;;;;;;0.70;0.30;;;;;;;11.62;100.00;98483.09;8328682;28;20520;-58
2023/04/01 05:15:23;;;;;;;;;;;;;;;11.61;100.00;98490.31;8328921;28;20029;-58
2023/04/01 05:19:24;;;;;;;1.35;0.30;;;;;;;11.57;100.00;98494.47;8313596;28;19921;-61
2023/04/01 05:23:25;;;;;;;0.50;0.30;;;;;;;11.59;100.00;98492.38;8310223;28;20492;-58
2023/04/01 05:27:25;;;;;;;1.63;0.50;;;;;;;11.58;100.00;98496.13;8294953;28;20041;-60
2023/04/01 05:31:26;;;;;;;2.30;0.40;;;;;;;11.57;100.00;98502.59;8294259;28;20045;-58
2023/04/01 05:35:27;;;;;;;2.85;0.38;;;;;;;11.53;100.00;98503.16;8290747;28;20535;-59
2023/04/01 05:39:27;;;;;;;1.38;0.38;;;;;;;11.50;100.00;98500.84;8294723;28;20046;-59
2023/04/01 05:43:29;;;;;;;0.50;0.50;;;;;;;11.49;100.00;98502.72;8294533;28;20041;-58
2023/04/01 05:47:31;;;;;;;1.00;0.50;;;;;;;11.52;100.00;98518.56;8293945;28;20038;-58
2023/04/01 05:51:32;;;;;;;1.05;0.60;;;;;;;11.53;100.00;98514.00;8303917;28;20030;-58
2023/04/01 05:55:35;;;;;;;1.05;0.60;;;;;;;11.53;100.00;98514.81;8286899;28;20042;-59
2023/04/01 05:59:35;;;;;;;2.00;0.75;;;;;;;11.56;100.00;98513.59;8340664;28;20078;-58
2023/04/01 06:03:37;;;;;;;0.82;0.60;;;;;;;11.59;100.00;98518.63;8358794;28;20048;-58
2023/04/01 06:07:38;;;;;;;2.53;0.80;;;;;;;11.61;100.00;98511.97;8351708;27;20034;-59
2023/04/01 06:12:19;;;;;;;2.50;0.70;;;;;;;11.65;100.00;98518.69;8326469;28;20041;-58
2023/04/01 06:16:57;;;;;;;1.90;0.77;;;;;;;11.65;100.00;98524.09;8325401;28;20072;-58
2023/04/01 06:21:24;;;;;;;3.03;0.95;;;;;;;11.67;100.00;98529.31;8297232;28;20041;-58
2023/04/01 06:34:40;;;;;;;1.88;1.15;;;;;;;11.80;100.00;98541.09;8408777;27;20953;-58
2023/04/01 06:39:21;;;;;;;1.63;1.25;;;;;;;11.87;100.00;98544.69;8397746;27;20131;-58
2023/04/01 06:43:35;;;;;;;2.13;1.30;;;;;;;11.90;100.00;98549.69;8430243;27;20055;-58
2023/04/01 06:48:24;;;;;;;2.70;1.50;;;;;;;11.97;100.00;98548.91;8383853;27;20525;-58
2023/04/01 06:57:18;;;;;;;2.70;1.35;;;;;;;12.04;100.00;98547.09;8383718;27;20489;-58
2023/04/01 07:01:27;;;;;;;2.70;1.40;;;;;;;12.06;100.00;98558.56;8368116;28;20044;-58
2023/04/01 07:05:31;;;;;;;2.22;1.42;;;;;;;12.00;100.00;98553.94;8361520;28;20048;-61
2023/04/01 07:09:37;;;;;;;3.88;1.73;;;;;;;12.00;100.00;98562.06;8386845;28;20037;-60
2023/04/01 07:14:10;;;;;;;1.58;1.30;;;;;;;12.03;100.00;98558.94;8358816;28;20654;-58
2023/04/01 07:18:17;;;;;;;1.77;1.05;;;;;;;12.04;100.00;98561.47;8351209;28;20041;-60
2023/04/01 07:22:38;;;;;;;2.38;0.95;;;;;;;12.04;100.00;98571.47;8369948;28;20044;-58
2023/04/01 07:26:45;;;;;;;2.17;1.40;;;;;;;12.03;100.00;98569.78;8384342;28;20562;-58
2023/04/01 07:31:05;;;;;;;3.58;1.05;;;;;;;12.02;100.00;98578.97;8383711;28;20029;-58
2023/04/01 07:39:37;;;;;;;1.00;0.88;;;;;;;12.08;100.00;98589.00;8403992;27;20504;-59
2023/04/01 07:44:37;;;;;;;1.40;0.90;;;;;;;12.15;100.00;98595.28;8350308;28;20045;-58
2023/04/01 07:49:06;;;;;;;1.98;0.95;;;;;;;12.20;100.00;98604.50;8413120;27;20036;-59
2023/04/01 07:53:21;;;;;;;3.35;0.80;;;;;;;12.24;100.00;98599.53;8408271;27;20039;-60
2023/04/01 07:57:43;;;;;;;1.17;0.52;;;;;;;12.19;100.00;98618.25;8377316;28;20044;-59
2023/04/01 08:02:23;;;;;;;1.70;0.98;;;;;;;12.16;100.00;98621.34;8380443;28;20045;-59
2023/04/01 08:06:33;;;;;;;1.52;0.70;;;;;;;12.11;100.00;98631.94;8368274;28;20041;-58
2023/04/01 08:11:00;;;;;;;0.80;0.60;;;;;;;12.03;100.00;98640.19;8371288;28;20047;-59
2023/04/01 08:15:27;;;;;;;1.15;0.63;;;;;;;12.03;100.00;98643.75;8408293;27;20359;-60
2023/04/01 08:20:10;;;;;;;1.20;0.70;;;;;;;12.05;100.00;98648.97;8406580;27;20452;-60
2023/04/01 08:24:19;;;;;;;2.40;0.40;;;;;;;12.07;100.00;98652.34;8411708;27;20336;-59
2023/04/01 08:28:29;;;;;;;0.88;0.60;;;;;;;12.09;100.00;98661.09;8412478;27;20036;-58
2023/04/01 08:32:37;;;;;;;0.57;0.47;;;;;;;12.21;100.00;98659.53;8412445;28;20035;-59
2023/04/01 08:36:43;;;;;;;1.40;0.70;;;;;;;12.21;100.00;98670.34;8405728;27;20043;-59
2023/04/01 08:41:07;;;;;;;1.30;0.68;;;;;;;12.17;100.00;98685.34;8398865;27;20177;-58
2023/04/01 08:45:53;;;;;;;2.20;1.10;;;;;;;12.11;100.00;98680.69;8390882;27;20094;-59
2023/04/01 08:50:34;;;;;;;1.27;0.80;;;;;;;12.05;100.00;98679.63;8367069;28;20115;-59
2023/04/01 08:55:07;;;;;;;1.77;1.00;;;;;;;11.96;100.00;98685.34;8371468;28;20044;-59
2023/04/01 08:59:52;;;;;;;1.00;0.80;;;;;;;11.95;100.00;98691.81;8385435;28;20063;-59
2023/04/01 09:09:29;;;;;;;1.42;1.00;;;;;;;12.04;100.00;98704.19;8314957;28;20944;-54
2023/04/01 09:18:26;;;;;;;4.05;1.33;;;;;;;12.20;100.00;98712.84;8346883;27;20377;-54
2023/04/01 09:27:32;;;;;;;1.13;0.70;;;;;;;12.33;100.00;98718.41;8342297;27;20723;-53
2023/04/01 09:32:06;;;;;;;1.30;0.90;;;;;;;12.50;100.00;98718.97;8344665;28;20299;-58
2023/04/01 09:36:45;;;;;;;1.77;0.60;;;;;;;12.58;100.00;98735.06;8340564;28;20033;-58
2023/04/01 09:45:21;;;;;;;1.80;0.68;;;;;;;12.55;100.00;98736.31;8344674;27;20470;-52
2023/04/01 09:49:55;;;;;;;1.02;0.63;;;;;;;12.63;100.00;98746.16;8358185;28;20033;-53
2023/04/01 09:54:36;;;;;;;1.42;0.90;;;;;;;12.58;100.00;98754.88;8324204;28;20048;-53
2023/04/01 09:59:08;;;;;;;3.83;1.17;;;;;;;12.68;100.00;98754.53;8280002;28;20142;-53
2023/04/01 10:04:02;;;;;;;2.13;0.90;;;;;;;12.68;100.00;98760.81;8284212;28;20038;-53
2023/04/01 10:08:36;;;;;;;1.83;0.90;;;;;;;12.67;100.00;98777.25;8320611;28;20057;-53
2023/04/01 10:13:17;;;;;;;1.20;0.77;;;;;;;12.74;100.00;98775.44;8330041;28;20313;-52
2023/04/01 10:17:52;;;;;;;1.83;1.00;;;;;;;12.84;100.00;98787.63;8306599;28;20037;-54
2023/04/01 10:22:32;;;;;;;1.80;0.90;;;;;;;12.92;100.00;98792.91;8358904;28;20041;-58
2023/04/01 10:27:13;;;;;;;1.15;0.90;;;;;;;13.09;100.00;98796.19;8334526;28;20076;-58
2023/04/01 10:32:13;;;;;;;1.35;0.75;;;;;;;13.06;99.74;98794.72;8318074;28;20042;-58
2023/04/01 10:36:54;;;;;;;1.77;0.80;;;;;;;13.04;99.79;98799.50;8321852;28;20095;-58
2023/04/01 10:41:40;;;;;;;0.90;0.60;;;;;;;13.14;98.58;98801.84;8327039;28;20041;-58
2023/04/01 10:46:34;;;;;;;0.80;0.63;;;;;;;13.23;99.92;98803.34;8342456;28;20099;-53
2023/04/01 10:50:55;;;;;;;;;;;;;;;13.23;100.00;98797.94;8334913;28;20495;-53
2023/04/01 10:55:14;;;;;;;1.00;0.70;;;;;;;13.24;100.00;98796.91;8300174;28;19921;-53
2023/04/01 11:00:14;;;;;;;1.63;1.38;;;;;;;13.36;100.00;98804.28;8300108;28;20037;-53
2023/04/01 11:05:14;;;;;;;2.00;0.88;;;;;;;13.28;100.00;98814.47;8299050;28;20554;-53
2023/04/01 11:10:01;;;;;;;0.75;0.75;;;;;;;13.27;100.00;98810.91;8303630;28;20347;-54
2023/04/01 11:14:41;;;;;;;0.82;0.73;;;;;;;13.32;100.00;98810.31;8318701;28;20390;-54
2023/04/01 11:19:04;;;;;;;1.00;0.85;;;;;;;13.31;100.00;98811.34;8318311;28;20579;-54
2023/04/01 11:23:22;;;;;;;1.35;1.00;;;;;;;13.41;99.13;98823.53;8317094;28;20148;-54
2023/04/01 11:27:56;;;;;;;1.90;1.17;;;;;;;13.52;100.00;98824.84;8335345;28;20041;-55
2023/04/01 11:36:59;;;;;;;0.88;0.88;;;;;;;13.59;98.06;98828.44;8412118;27;20405;-53
2023/04/01 11:45:53;;;;;;;1.50;1.20;;;;;;;13.66;99.26;98849.16;8342744;27;20358;-53
2023/04/01 11:58:56;;;;;;;2.40;1.08;;;;;;;13.37;100.00;98864.84;8397949;27;20363;-53
2023/04/01 12:03:26;;;;;;;1.10;1.00;;;;;;;13.48;100.00;98864.31;8394820;27;20506;-53
2023/04/01 12:16:37;;;;;;;1.13;0.80;;;;;;;13.86;98.94;98876.41;8403264;27;20355;-54
2023/04/01 12:21:06;;;;;;;1.05;0.70;;;;;;;13.78;96.76;98884.72;8383107;27;20444;-58
2023/04/01 12:25:46;;;;;;;0.75;0.70;;;;;;;13.54;97.21;98893.34;8394944;27;20451;-58
2023/04/01 12:30:05;;;;;;;1.48;0.90;;;;;;;13.46;96.41;98893.50;8394396;28;20037;-58
2023/04/01 12:34:36;;;;;;;1.27;1.13;;;;;;;13.72;97.64;98907.25;8395844;28;20047;-58
2023/04/01 12:39:10;;;;;;;1.42;1.17;;;;;;;13.78;96.72;98904.56;8365111;28;20041;-58
2023/04/01 12:43:40;;;;;;;1.50;1.20;;;;;;;13.93;96.92;98915.31;8360792;28;20117;-58
2023/04/01 12:48:21;;;;;;;1.63;1.30;;;;;;;14.01;96.41;98907.00;8384802;28;20101;-58
2023/04/01 13:01:46;;;;;;;1.45;0.85;;;;;;;14.05;96.54;98919.13;8328695;27;20358;-57
2023/04/01 13:06:20;;;;;;;1.88;1.05;;;;;;;14.02;96.09;98919.53;8320153;28;20046;-58
2023/04/01 13:10:50;;;;;;;1.50;1.20;;;;;;;13.84;95.88;98921.94;8307159;28;20037;-58
2023/04/01 13:15:21;;;;;;;3.75;0.80;;;;;;;13.83;96.69;98920.28;8311991;28;20065;-58
2023/04/01 13:24:00;;;;;;;1.48;1.25;;;;;;;13.97;97.71;98938.34;8342521;27;20786;-58
2023/04/01 13:28:28;;;;;;;1.30;1.20;;;;;;;14.01;97.04;98939.59;8316255;28;20049;-59
2023/04/01 13:32:47;;;;;;;1.45;1.30;;;;;;;14.36;95.37;98938.53;8299008;28;20064;-58
2023/04/01 13:37:18;;;;;;;2.20;1.90;;;;;;;14.67;92.70;98947.00;8297567;28;20034;-58
2023/04/01 13:41:39;;;;;;;2.70;1.50;;;;;;;14.54;93.43;98946.97;8290964;28;20401;-58
2023/04/01 13:46:03;;;;;;;1.65;1.50;;;;;;;14.44;93.87;98957.41;8294526;28;20049;-52
2023/04/01 13:50:23;;;;;;;;;;;;;;;14.21;93.37;98961.47;8305673;28;20041;-53
2023/04/01 13:59:27;;;;;;;2.05;1.23;;;;;;;13.87;96.39;98966.91;8389776;27;20386;-54
2023/04/01 14:03:50;;;;;;;2.05;1.20;;;;;;;13.77;98.84;98969.97;8373897;28;20534;-54
2023/04/01 14:08:24;;;;;;;2.75;1.00;;;;;;;14.00;97.33;98970.50;8374379;28;20036;-54
2023/04/01 14:12:30;;;;;;;;;;;;;;;14.03;94.82;98980.97;8374625;28;20045;-52
2023/04/01 14:21:31;;;;;;;2.35;0.80;;;;;;;13.76;96.34;98984.59;8321172;27;21190;-53
2023/04/01 14:26:12;;;;;;;2.35;1.13;;;;;;;13.72;97.44;98991.44;8305025;28;20045;-53
2023/04/01 14:30:52;;;;;;;1.50;1.40;;;;;;;13.80;98.54;98992.16;8301052;28;20038;-52
2023/04/01 14:35:05;;;;;;;2.45;1.75;;;;;;;13.68;96.99;98987.44;8304018;28;20045;-53
2023/04/01 14:48:07;;;;;;;1.17;1.13;;;;;;;13.66;99.69;99005.81;8405248;27;20372;-52
2023/04/01 14:52:28;;;;;;;4.65;1.23;;;;;;;13.74;98.68;99002.94;8391205;27;20306;-53
2023/04/01 14:56:47;;;;;;;1.65;1.42;;;;;;;13.86;97.88;99017.66;8392076;27;20340;-53
2023/04/01 15:10:12;;;;;;;3.00;1.50;;;;;;;13.57;96.63;99012.41;8396930;27;20448;-55
2023/04/01 15:14:48;;;;;;;4.25;1.83;;;;;;;13.70;95.00;99031.56;8392962;27;20064;-53
2023/04/01 15:19:15;;;;;;;1.85;1.65;;;;;;;13.69;95.47;99038.00;8389186;27;20044;-53
2023/04/01 15:23:55;;;;;;;2.15;1.83;;;;;;;13.77;94.78;99046.88;8392984;27;20040;-53
2023/04/01 15:28:30;;;;;;;2.03;1.70;;;;;;;13.74;93.39;99049.13;8388388;27;20355;-55
2023/04/01 15:33:04;;;;;;;2.95;2.13;;;;;;;13.74;94.70;99060.00;8388448;27;20044;-53
2023/04/01 15:37:33;;;;;;;1.98;1.80;;;;;;;13.73;94.06;99061.03;8401967;27;20040;-53
2023/04/01 15:42:13;;;;;;;2.40;2.20;;;;;;;13.92;92.67;99065.78;8378959;28;20064;-50
2023/04/01 15:50:50;;;;;;;2.30;1.77;;;;;;;13.76;93.21;99079.66;8383845;27;20432;-48
2023/04/01 15:59:57;;;;;;;2.25;2.05;;;;;;;13.69;94.96;99082.31;8309336;28;20365;-52
2023/04/01 16:09:20;;;;;;;2.67;1.50;;;;;;;13.46;96.65;99100.69;8381992;27;20126;-54
2023/04/01 16:13:46;;;;;;;2.65;1.70;;;;;;;13.38;96.47;99099.94;8366424;28;20040;-54
2023/04/01 16:18:26;;;;;;;3.33;1.70;;;;;;;13.38;96.26;99110.81;8344345;28;20091;-53
2023/04/01 16:22:32;;;;;;;2.28;2.08;;;;;;;13.31;99.83;99116.19;8343446;28;20128;-53
2023/04/01 16:26:43;;;;;;;3.45;1.92;;;;;;;13.14;100.00;99117.44;8344252;28;20037;-53
2023/04/01 16:31:09;;;;;;;3.03;1.88;;;;;;;13.06;100.00;99127.56;8344564;28;20116;-53
2023/04/01 16:35:25;;;;;;;1.80;1.63;;;;;;;12.98;100.00;99127.63;8334932;28;20037;-53
2023/04/01 16:40:01;;;;;;;2.13;1.92;;;;;;;12.89;100.00;99126.06;8340769;28;20037;-58
2023/04/01 16:44:23;;;;;;;2.50;1.80;;;;;;;12.80;100.00;99143.44;8312595;28;20562;-58
2023/04/01 16:48:51;;;;;;;2.65;1.65;;;;;;;12.77;100.00;99154.69;8311803;28;20072;-58
2023/04/01 16:57:36;;;;;;;2.13;1.80;;;;;;;12.75;100.00;99152.16;8313738;28;20386;-53
2023/04/01 17:02:03;;;;;;;3.35;2.47;;;;;;;12.70;100.00;99159.19;8308802;28;20048;-54
2023/04/01 17:06:30;;;;;;;4.28;2.40;;;;;;;12.62;100.00;99167.38;8309403;28;20044;-54
2023/04/01 17:10:42;;;;;;;2.53;2.22;;;;;;;12.54;100.00;99175.63;8311042;28;20037;-54
2023/04/01 17:15:08;;;;;;;2.22;2.03;;;;;;;12.55;100.00;99182.72;8310881;28;20117;-54
2023/04/01 17:23:37;;;;;;;2.13;1.92;;;;;;;12.28;100.00;99191.47;8311431;28;20771;-55
2023/04/01 17:28:01;;;;;;;2.30;1.90;;;;;;;12.23;100.00;99199.31;8278802;28;20527;-55
2023/04/01 17:36:38;;;;;;;3.10;2.83;;;;;;;12.25;100.00;99208.09;8342442;27;20705;-53
2023/04/01 17:40:53;;;;;;;2.65;2.45;;;;;;;12.15;100.00;99223.75;8295301;28;20041;-54
2023/04/01 17:45:05;;;;;;;2.80;2.55;;;;;;;12.08;100.00;99233.66;8311001;28;20041;-53
2023/04/01 17:49:33;;;;;;;2.50;2.30;;;;;;;12.08;100.00;99233.66;8310557;28;20033;-53
2023/04/01 17:53:51;;;;;;;5.70;3.70;;;;;;;12.03;100.00;99241.47;8294795;28;20530;-53
2023/04/01 18:02:49;;;;;;;4.13;2.95;;;;;;;11.92;100.00;99258.16;8342057;27;20834;-55
2023/04/01 18:07:19;;;;;;;3.78;2.67;;;;;;;11.86;100.00;99263.25;8334498;28;20102;-56
2023/04/01 18:11:59;;;;;;;2.53;2.33;;;;;;;11.84;100.00;99265.28;8330263;28;20038;-56
2023/04/01 18:21:12;;;;;;;3.50;3.13;;;;;;;11.78;100.00;99284.94;8396555;27;20368;-53
2023/04/01 18:25:22;;;;;;;2.85;2.65;;;;;;;11.75;100.00;99293.44;8387321;27;20068;-53
2023/04/01 18:29:35;;;;;;;3.65;3.30;;;;;;;11.79;100.00;99294.78;8390664;27;20036;-53
2023/04/01 18:34:00;;;;;;;6.80;4.05;;;;;;;11.74;100.00;99296.31;8390684;27;20044;-53
2023/04/01 18:38:13;;;;;;;5.00;4.50;;;;;;;11.69;100.00;99302.25;8385400;27;20591;-54
2023/04/01 18:42:27;;;;;;;7.57;4.93;;;;;;;11.73;100.00;99303.63;8388244;27;20051;-53
2023/04/01 18:50:52;;;;;;;4.55;4.03;;;;;;;11.61;100.00;99313.13;8387242;27;20904;-54
2023/04/01 18:59:52;;;;;;;4.32;3.92;;;;;;;11.52;100.00;99325.00;8388044;27;20921;-54
2023/04/01 19:04:18;;;;;;;5.32;4.05;;;;;;;11.47;100.00;99332.78;8391103;27;20040;-55
2023/04/01 19:08:28;;;;;;;4.40;3.90;;;;;;;11.46;100.00;99336.53;8375437;27;20044;-54
2023/04/01 19:12:41;;;;;;;5.07;4.57;;;;;;;11.42;100.00;99351.44;8359466;28;20036;-54
2023/04/01 19:16:54;;;;;;;8.30;5.63;;;;;;;11.43;100.00;99355.81;8354862;28;20055;-54
2023/04/01 19:21:27;;;;;;;8.25;5.95;;;;;;;11.42;100.00;99356.84;8365678;28;20092;-54
2023/04/01 19:26:04;;;;;;;14.37;8.33;;;;;;;11.38;100.00;99358.19;8361688;28;20483;-53
2023/04/01 19:30:21;;;;;;;5.80;5.20;;;;;;;11.36;100.00;99357.53;8362082;28;20290;-54
2023/04/01 19:34:48;;;;;;;10.38;6.63;;;;;;;11.23;100.00;99361.81;8355382;28;20567;-54
2023/04/01 19:39:25;;;;;;;10.00;6.97;;;;;;;11.31;100.00;99365.31;8377230;28;20440;-56
2023/04/01 19:43:44;;;;;;;9.35;7.57;;;;;;;11.27;100.00;99364.00;8380997;28;20516;-54
2023/04/01 19:48:16;;;;;;;9.52;6.68;;;;;;;11.32;100.00;99367.00;8343778;28;20033;-59
2023/04/01 19:52:29;;;;;;;7.20;6.18;;;;;;;11.34;100.00;99374.94;8359598;28;20037;-59
2023/04/01 19:57:00;;;;;;;8.65;7.40;;;;;;;11.42;100.00;99372.22;8375881;28;20028;-59
2023/04/01 20:01:04;;;;;;;8.88;5.32;;;;;;;11.48;100.00;99377.81;8376271;28;20053;-59
2023/04/01 20:05:30;;;;;;;6.43;4.47;;;;;;;11.48;100.00;99383.22;8378592;28;20032;-59
2023/04/01 20:09:50;;;;;;;5.57;3.35;;;;;;;11.38;100.00;99382.53;8353983;28;20400;-59
2023/04/01 20:14:07;;;;;;;3.53;3.22;;;;;;;11.40;100.00;99391.34;8335278;28;20061;-59
2023/04/01 20:18:33;;;;;;;3.35;3.05;;;;;;;11.24;100.00;99396.81;8319015;28;20095;-59
2023/04/01 20:23:06;;;;;;;3.40;2.92;;;;;;;11.25;100.00;99403.88;8337716;28;20084;-59
2023/04/01 20:31:34;;;;;;;3.70;2.85;;;;;;;11.15;100.00;99414.06;8283071;27;20926;-59
2023/04/01 20:35:43;;;;;;;3.67;2.53;;;;;;;11.26;100.00;99416.38;8280287;28;20038;-60
2023/04/01 20:40:22;;;;;;;3.15;2.33;;;;;;;11.19;100.00;99426.22;8279919;28;20045;-61
2023/04/01 20:49:23;;;;;;;3.30;2.50;;;;;;;11.07;100.00;99433.00;8352270;27;20398;-60
2023/04/01 21:02:25;;;;;;;5.10;3.22;;;;;;;11.19;100.00;99453.25;8399065;27;20391;-58
2023/04/01 21:11:01;;;;;;;4.60;3.65;;;;;;;11.23;100.00;99449.19;8413113;27;20722;-59
2023/04/01 21:15:41;;;;;;;3.88;3.10;;;;;;;11.26;100.00;99448.03;8360436;28;20086;-58
2023/04/01 21:28:50;;;;;;;5.97;4.15;;;;;;;11.27;100.00;99466.81;8336914;27;20389;-58
2023/04/01 21:33:30;;;;;;;6.28;4.32;;;;;;;11.24;100.00;99472.56;8349671;28;20069;-58
2023/04/01 21:38:00;;;;;;;5.15;4.55;;;;;;;11.24;100.00;99467.13;8358232;28;20053;-59
2023/04/01 21:51:09;;;;;;;5.70;4.55;;;;;;;11.18;100.00;99481.34;8337963;27;20047;-58
2023/04/01 21:55:32;;;;;;;5.72;4.78;;;;;;;11.17;100.00;99485.06;8340934;28;20099;-60
2023/04/01 22:09:03;;;;;;;10.00;6.88;;;;;;;11.27;100.00;99501.13;8415680;27;20397;-60
2023/04/01 22:13:20;;;;;;;6.13;5.32;;;;;;;11.30;100.00;99503.47;8393964;28;20300;-60
2023/04/01 22:17:31;;;;;;;9.88;5.57;;;;;;;11.34;100.00;99504.81;8394380;28;20047;-60
2023/04/01 22:21:40;;;;;;;7.57;6.28;;;;;;;11.40;100.00;99510.41;8402484;28;20457;-60
2023/04/01 22:26:09;;;;;;;10.90;8.13;;;;;;;11.40;100.00;99513.13;8396289;28;20032;-60
2023/04/01 22:30:23;;;;;;;12.15;9.75;;;;;;;11.39;100.00;99519.56;8414571;28;20048;-58
2023/04/01 22:34:50;;;;;;;14.90;10.55;;;;;;;11.51;100.00;99534.44;8415363;28;20097;-57
2023/04/01 22:52:34;;;;;;;15.88;11.07;;;;;;;11.37;100.00;99559.47;8407201;27;20448;-57
2023/04/01 22:56:39;;;;;;;11.15;9.30;;;;;;;11.29;100.00;99564.03;8408132;27;20044;-59
2023/04/01 23:00:46;;;;;;;16.40;10.75;;;;;;;11.30;100.00;99569.28;8421516;27;20039;-59
2023/04/01 23:04:54;;;;;;;16.30;11.57;;;;;;;11.22;100.00;99576.50;8398885;28;20060;-59
2023/04/01 23:09:04;;;;;;;12.77;10.15;;;;;;;11.22;100.00;99574.66;8390600;27;20120;-59
2023/04/01 23:13:13;;;;;;;10.88;8.95;;;;;;;11.10;100.00;99589.53;8399023;28;20047;-59
2023/04/01 23:17:40;;;;;;;13.73;9.23;;;;;;;10.92;100.00;99596.09;8414214;28;20036;-59
2023/04/01 23:21:51;;;;;;;13.57;8.60;;;;;;;10.88;100.00;99606.38;8414199;28;20044;-54
2023/04/01 23:26:04;;;;;;;10.95;8.32;;;;;;;10.76;100.00;99601.44;8412873;28;20032;-54
2023/04/01 23:30:42;;;;;;;12.05;9.07;;;;;;;10.73;100.00;99609.91;8405329;28;20041;-54
2023/04/01 23:34:49;;;;;;;13.32;9.43;;;;;;;10.67;100.00;99619.50;8415067;28;20507;-54
2023/04/01 23:38:50;;;;;;;13.20;10.10;;;;;;;10.59;100.00;99626.72;8412650;28;20066;-55